createdAt,value
2022-10-19T00:01:20.681Z,102368.06
2022-10-19T00:06:26.596Z,102380.91
2022-10-19T00:11:28.294Z,102378.75
2022-10-19T00:16:31.283Z,102383.06
2022-10-19T00:21:32.797Z,102383.25
2022-10-19T00:26:34.353Z,102392.94
2022-10-19T00:31:35.797Z,102371.03
2022-10-19T00:36:38.761Z,102374.94
2022-10-19T00:41:40.292Z,102384.47
2022-10-19T00:46:43.237Z,102391.09
2022-10-19T00:51:46.482Z,102389.31
2022-10-19T00:56:49.463Z,102384.25
2022-10-19T01:01:50.936Z,102390.97
2022-10-19T01:06:53.039Z,102396.59
2022-10-19T01:12:31.110Z,102397.28
2022-10-19T01:18:06.208Z,102394.38
2022-10-19T01:23:35.494Z,102396.19
2022-10-19T01:29:01.964Z,102390.69
2022-10-19T01:34:14.563Z,102398.72
2022-10-19T01:39:24.717Z,102399.50
2022-10-19T01:44:54.197Z,102401.72
2022-10-19T01:50:24.676Z,102403.50
2022-10-19T01:55:26.343Z,102401.03
2022-10-19T02:00:27.801Z,102397.16
2022-10-19T02:05:30.827Z,102386.50
2022-10-19T02:10:32.638Z,102389.88
2022-10-19T02:15:35.669Z,102388.94
2022-10-19T02:20:37.410Z,102392.53
2022-10-19T02:25:38.865Z,102397.16
2022-10-19T02:30:40.334Z,102394.94
2022-10-19T02:35:41.780Z,102400.38
2022-10-19T02:40:45.341Z,102401.25
2022-10-19T02:45:57.003Z,102398.41
2022-10-19T02:50:58.468Z,102403.59
2022-10-19T02:55:59.930Z,102389.72
2022-10-19T03:01:01.418Z,102398.25
2022-10-19T03:06:02.927Z,102399.50
2022-10-19T03:11:04.463Z,102385.34
2022-10-19T03:16:10.369Z,102397.13
2022-10-19T03:21:12.566Z,102401.09
2022-10-19T03:26:15.837Z,102396.31
2022-10-19T03:31:17.302Z,102396.84
2022-10-19T03:36:25.604Z,102397.91
2022-10-19T03:41:28.424Z,102400.00
2022-10-19T03:46:30.005Z,102407.91
2022-10-19T03:51:31.874Z,102396.16
2022-10-19T03:56:33.531Z,102399.81
2022-10-19T04:01:37.158Z,102403.78
2022-10-19T04:06:39.898Z,102417.59
2022-10-19T04:11:41.490Z,102432.09
2022-10-19T04:16:42.973Z,102428.09
2022-10-19T04:21:44.869Z,102429.16
2022-10-19T04:26:48.269Z,102431.56
2022-10-19T04:31:50.056Z,102422.28
2022-10-19T04:36:52.545Z,102408.25
2022-10-19T04:41:54.224Z,102410.38
2022-10-19T04:46:55.728Z,102423.28
2022-10-19T04:51:57.207Z,102425.25
2022-10-19T04:56:58.669Z,102422.97
2022-10-19T05:02:00.130Z,102427.19
2022-10-19T05:07:01.593Z,102430.16
2022-10-19T05:12:03.784Z,102425.44
2022-10-19T05:17:05.238Z,102420.66
2022-10-19T05:22:06.694Z,102421.72
2022-10-19T05:27:08.150Z,102421.63
2022-10-19T05:32:09.611Z,102409.28
2022-10-19T05:37:11.064Z,102408.50
2022-10-19T05:42:12.518Z,102407.25
2022-10-19T05:47:14.015Z,102408.72
2022-10-19T05:52:17.658Z,102410.13
2022-10-19T05:57:19.197Z,102396.03
2022-10-19T06:02:20.669Z,102400.19
2022-10-19T06:07:22.125Z,102401.09
2022-10-19T06:12:25.063Z,102410.56
2022-10-19T06:17:28.776Z,102400.03
2022-10-19T06:22:30.224Z,102420.72
2022-10-19T06:27:32.120Z,102420.09
2022-10-19T06:32:33.901Z,102423.94
2022-10-19T06:37:35.585Z,102416.81
2022-10-19T06:42:39.997Z,102420.25
2022-10-19T06:47:41.498Z,102427.53
2022-10-19T06:52:43.121Z,102423.50
2022-10-19T06:57:45.189Z,102430.56
2022-10-19T07:02:46.665Z,102442.81
2022-10-19T07:07:48.150Z,102431.84
2022-10-19T07:12:49.636Z,102438.69
2022-10-19T07:17:52.817Z,102438.69
2022-10-19T07:22:54.299Z,102433.31
2022-10-19T07:27:55.780Z,102444.72
2022-10-19T07:32:57.232Z,102448.59
2022-10-19T07:37:58.689Z,102453.56
2022-10-19T07:43:00.141Z,102462.34
2022-10-19T16:01:56.147Z,102229.34
2022-10-19T16:06:57.859Z,102229.28
2022-10-19T16:11:59.305Z,102238.00
2022-10-19T16:17:00.767Z,102239.94
2022-10-19T16:22:02.242Z,102246.44
2022-10-19T16:27:03.743Z,102242.00
2022-10-19T16:32:05.299Z,102247.56
2022-10-19T16:37:07.435Z,102261.03
2022-10-19T16:42:09.142Z,102256.13
2022-10-19T16:47:10.601Z,102263.84
2022-10-19T16:52:14.014Z,102274.38
2022-10-19T16:57:15.465Z,102276.94
2022-10-19T17:02:16.925Z,102263.75
2022-10-19T17:07:18.462Z,102270.16
2022-10-19T17:12:19.931Z,102269.44
2022-10-19T17:17:21.409Z,102264.19
2022-10-19T17:22:22.854Z,102272.91
2022-10-19T17:27:24.318Z,102260.06
2022-10-19T17:32:25.780Z,102255.34
2022-10-19T17:37:27.245Z,102247.03
2022-10-19T17:42:28.725Z,102243.75
2022-10-19T17:47:30.553Z,102237.16
2022-10-19T17:52:32.033Z,102234.72
2022-10-19T17:57:35.486Z,102234.69
2022-10-19T18:02:37.230Z,102230.50
2022-10-19T18:07:38.812Z,102227.94
2022-10-19T18:12:40.279Z,102230.88
2022-10-19T18:17:41.739Z,102226.50
2022-10-19T18:27:49.580Z,102221.66
2022-10-19T18:32:51.031Z,102211.50
2022-10-19T18:37:52.475Z,102210.41
2022-10-19T18:42:53.930Z,102211.50
2022-10-19T18:47:55.440Z,102208.69
2022-10-19T18:52:56.936Z,102211.34
2022-10-19T18:57:58.400Z,102205.22
2022-10-19T19:02:59.858Z,102197.38
2022-10-19T19:08:01.346Z,102186.38
2022-10-19T19:13:02.817Z,102182.88
2022-10-19T19:18:04.540Z,102175.34
2022-10-19T19:23:06.021Z,102165.81
2022-10-19T19:28:07.478Z,102163.38
2022-10-19T19:33:08.990Z,102150.59
2022-10-19T19:38:10.993Z,102143.81
2022-10-19T19:43:13.259Z,102134.38
2022-10-19T19:48:14.719Z,102139.13
2022-10-19T19:53:16.174Z,102133.75
2022-10-19T19:58:18.816Z,102133.81
2022-10-19T20:03:20.274Z,102135.50
2022-10-19T20:08:21.978Z,102124.81
2022-10-19T20:13:23.443Z,102128.66
2022-10-19T20:18:24.918Z,102124.31
2022-10-19T20:23:26.364Z,102130.94
2022-10-19T20:28:28.489Z,102132.41
2022-10-19T20:33:30.967Z,102123.44
2022-10-19T20:38:33.460Z,102124.34
2022-10-19T20:43:35.500Z,102109.00
2022-10-19T20:48:37.033Z,102116.44
2022-10-19T20:53:38.574Z,102111.41
2022-10-19T20:58:42.445Z,102109.41
2022-10-19T21:03:48.021Z,102105.22
2022-10-19T21:08:49.750Z,102102.59
2022-10-19T21:14:04.445Z,102102.38
2022-10-19T21:19:11.411Z,102092.09
2022-10-19T21:24:14.897Z,102095.16
2022-10-19T21:29:16.397Z,102071.53
2022-10-19T21:34:22.040Z,102066.19
2022-10-19T21:39:23.554Z,102056.41
2022-10-19T21:44:25.069Z,102055.84
2022-10-19T21:49:26.533Z,102042.84
2022-10-19T21:54:29.292Z,102027.78
2022-10-19T21:59:30.779Z,102011.47
2022-10-19T22:04:32.234Z,102021.19
2022-10-19T22:09:34.098Z,102011.75
2022-10-19T22:14:35.557Z,101999.03
2022-10-19T22:19:37.015Z,102013.03
2022-10-19T22:24:38.517Z,102001.03
2022-10-19T22:29:39.985Z,101984.16
2022-10-19T22:34:41.428Z,101961.47
2022-10-19T22:39:42.904Z,101979.88
2022-10-19T22:44:44.435Z,101967.97
2022-10-19T22:49:45.911Z,101957.59
2022-10-19T22:54:47.448Z,101972.31
2022-10-19T22:59:48.895Z,101967.47
2022-10-19T23:04:50.350Z,101982.22
2022-10-19T23:09:52.325Z,101973.38
2022-10-19T23:14:53.777Z,101978.91
2022-10-19T23:19:55.267Z,101972.47
2022-10-19T23:24:56.721Z,101965.78
2022-10-19T23:29:58.301Z,101953.31
2022-10-19T23:34:59.761Z,101966.00
2022-10-19T23:40:01.677Z,101959.13
2022-10-19T23:45:03.199Z,101964.38
2022-10-19T23:50:04.812Z,101959.53
2022-10-19T23:55:06.862Z,101948.72
